Time;durP1;ratioP1;P1;durP2;ratioP2;P2;SDS_P1;SDS_P2;PMS_P1;PMS_P2;Temp;Humidity;BMP_temperature;BMP_pressure;BME280_temperature;BME280_humidity;BME280_pressure;Samples;Min_cycle;Max_cycle;Signal;HPM_P1;HPM_P2
2023/06/26 00:00:03;;;;;;;4.95;4.30;;;;;;;21.36;64.09;99352.72;342550;28;4658;-61
2023/06/26 00:00:15;;;;;;;4.80;4.30;;;;;;;21.38;64.00;99352.59;339658;28;18302;-61
2023/06/26 00:00:28;;;;;;;4.93;4.03;;;;;;;21.38;63.72;99353.41;340221;28;11138;-61
2023/06/26 00:00:40;;;;;;;5.18;3.90;;;;;;;21.37;63.69;99349.13;341734;28;4959;-59
2023/06/26 00:00:53;;;;;;;5.35;4.07;;;;;;;21.37;63.32;99354.41;342485;28;4586;-61
2023/06/26 00:01:05;;;;;;;4.65;4.10;;;;;;;21.37;63.47;99351.75;340037;28;18918;-61
2023/06/26 00:01:20;;;;;;;5.15;4.13;;;;;;;21.37;63.40;99351.75;342547;28;4501;-61
2023/06/26 00:01:32;;;;;;;6.25;4.28;;;;;;;21.37;63.39;99349.13;338946;28;16695;-62
2023/06/26 00:01:45;;;;;;;6.20;4.28;;;;;;;21.38;63.54;99353.41;342116;28;6794;-61
2023/06/26 00:01:57;;;;;;;4.95;4.18;;;;;;;21.37;63.36;99348.25;341282;28;5212;-61
2023/06/26 00:02:09;;;;;;;4.60;4.10;;;;;;;21.36;63.62;99352.72;337837;28;17051;-61
2023/06/26 00:02:21;;;;;;;5.47;4.35;;;;;;;21.36;63.09;99352.72;342234;28;4751;-61
2023/06/26 00:02:33;;;;;;;6.93;4.60;;;;;;;21.35;63.57;99358.97;339487;28;16452;-61
2023/06/26 00:02:45;;;;;;;6.55;4.38;;;;;;;21.32;64.16;99351.28;342634;28;5265;-61
2023/06/26 00:03:00;;;;;;;4.85;4.15;;;;;;;21.30;63.96;99355.84;339810;28;11926;-61
2023/06/26 00:03:14;;;;;;;4.95;4.07;;;;;;;21.30;63.88;99355.84;342529;28;4502;-60
2023/06/26 00:03:28;;;;;;;6.40;4.07;;;;;;;21.31;63.63;99357.56;338976;28;18130;-61
2023/06/26 00:03:40;;;;;;;6.57;4.00;;;;;;;21.30;64.02;99353.22;339014;28;17809;-61
2023/06/26 00:03:52;;;;;;;6.65;3.97;;;;;;;21.27;64.50;99356.09;339516;28;10363;-61
2023/06/26 00:04:05;;;;;;;6.85;4.30;;;;;;;21.25;64.30;99353.59;342042;28;4555;-59
2023/06/26 00:04:17;;;;;;;6.07;4.40;;;;;;;21.24;64.28;99351.91;342791;28;4925;-61
2023/06/26 00:04:29;;;;;;;5.55;4.25;;;;;;;21.22;64.77;99348.56;338864;28;18673;-60
2023/06/26 00:04:42;;;;;;;5.28;4.20;;;;;;;21.23;64.23;99349.38;342213;28;4692;-62
2023/06/26 00:04:55;;;;;;;5.47;4.40;;;;;;;21.22;64.23;99353.84;339473;28;18260;-61
2023/06/26 00:05:07;;;;;;;5.47;4.47;;;;;;;21.22;64.11;99350.38;341725;28;5147;-61
2023/06/26 00:05:22;;;;;;;5.50;4.00;;;;;;;21.23;64.08;99352.03;339738;28;18057;-61
2023/06/26 00:05:34;;;;;;;5.57;4.15;;;;;;;21.23;63.93;99355.53;339678;28;18641;-61
2023/06/26 00:05:46;;;;;;;5.50;4.32;;;;;;;21.24;63.79;99351.06;342579;28;4835;-61
2023/06/26 00:06:00;;;;;;;6.55;4.50;;;;;;;21.25;63.38;99347.44;339043;28;15967;-61
2023/06/26 00:06:13;;;;;;;7.28;4.60;;;;;;;21.24;63.28;99351.06;339643;28;11549;-61
2023/06/26 00:06:25;;;;;;;5.93;4.40;;;;;;;21.22;63.34;99347.72;341954;28;4673;-61
2023/06/26 00:06:38;;;;;;;5.47;4.28;;;;;;;21.23;63.40;99354.66;339737;28;4947;-61
2023/06/26 00:06:50;;;;;;;5.88;4.30;;;;;;;21.24;63.76;99348.44;341345;28;4994;-61
2023/06/26 00:07:02;;;;;;;6.68;4.47;;;;;;;21.22;64.14;99353.84;341385;28;4675;-61
2023/06/26 00:07:14;;;;;;;6.40;4.60;;;;;;;21.22;64.19;99345.91;339174;28;18179;-61
2023/06/26 00:07:26;;;;;;;6.28;4.53;;;;;;;21.23;64.27;99349.38;341872;28;4688;-61
2023/06/26 00:07:38;;;;;;;7.00;4.60;;;;;;;21.21;63.86;99348.66;339704;28;16107;-61
2023/06/26 00:07:50;;;;;;;7.30;4.70;;;;;;;21.19;64.66;99350.59;341555;28;5398;-61
2023/06/26 00:08:02;;;;;;;6.35;4.60;;;;;;;21.15;65.11;99348.22;342501;28;4833;-60
2023/06/26 00:08:14;;;;;;;5.80;4.60;;;;;;;21.14;65.00;99349.16;339653;28;18173;-61
2023/06/26 00:08:27;;;;;;;5.43;4.57;;;;;;;21.13;64.94;99350.16;342174;28;4624;-61
2023/06/26 00:08:39;;;;;;;5.70;4.75;;;;;;;21.11;65.43;99345.97;340076;28;18196;-61
2023/06/26 00:08:53;;;;;;;6.90;4.50;;;;;;;21.08;65.76;99357.59;342908;28;5452;-59
2023/06/26 00:09:05;;;;;;;7.05;4.38;;;;;;;21.08;65.14;99347.03;338860;28;18842;-62
2023/06/26 00:09:17;;;;;;;6.90;4.40;;;;;;;21.09;64.85;99348.72;342032;28;4814;-62
2023/06/26 00:09:29;;;;;;;5.80;4.50;;;;;;;21.08;65.58;99352.31;339835;28;17995;-62
2023/06/26 00:09:41;;;;;;;6.15;4.60;;;;;;;21.08;65.52;99352.31;342206;28;4746;-60
2023/06/26 00:09:53;;;;;;;6.57;4.45;;;;;;;21.09;64.60;99356.66;339732;28;17314;-61
2023/06/26 00:10:06;;;;;;;5.93;4.43;;;;;;;21.08;64.41;99352.31;343149;28;4634;-60
2023/06/26 00:10:18;;;;;;;5.80;4.55;;;;;;;21.10;64.14;99354.84;340336;28;12237;-61
2023/06/26 00:10:30;;;;;;;5.88;4.50;;;;;;;21.10;64.14;99346.91;340771;28;4723;-62
2023/06/26 00:10:42;;;;;;;5.78;4.47;;;;;;;21.10;63.98;99354.84;342850;28;4773;-61
2023/06/26 00:10:54;;;;;;;6.05;4.40;;;;;;;21.11;63.83;99346.78;340118;28;18281;-61
2023/06/26 00:11:06;;;;;;;6.80;4.60;;;;;;;21.12;64.10;99353.75;342565;28;4695;-61
2023/06/26 00:11:21;;;;;;;8.48;4.72;;;;;;;21.13;63.92;99352.78;340275;28;18092;-61
2023/06/26 00:11:33;;;;;;;7.45;4.45;;;;;;;21.15;63.83;99353.50;339867;28;18028;-61
2023/06/26 00:11:45;;;;;;;6.00;4.30;;;;;;;21.15;63.93;99350.88;342574;28;4729;-58
2023/06/26 00:11:59;;;;;;;5.35;4.30;;;;;;;21.17;63.86;99347.25;343222;28;5232;-60
2023/06/26 00:12:11;;;;;;;5.10;4.40;;;;;;;21.17;63.59;99350.75;340405;28;18367;-61
2023/06/26 00:12:23;;;;;;;5.68;4.35;;;;;;;21.17;64.02;99355.16;340205;28;11642;-61
2023/06/26 00:12:35;;;;;;;6.00;4.57;;;;;;;21.18;63.74;99351.56;341800;28;4630;-61
2023/06/26 00:12:47;;;;;;;6.50;4.60;;;;;;;21.15;63.80;99348.22;342630;28;4658;-61
2023/06/26 00:13:00;;;;;;;6.72;4.50;;;;;;;21.15;63.52;99350.03;338881;28;18412;-61
2023/06/26 00:13:12;;;;;;;6.40;4.47;;;;;;;21.17;63.89;99349.88;342228;28;4669;-61
2023/06/26 00:13:24;;;;;;;5.93;4.43;;;;;;;21.17;64.09;99349.88;339607;28;19101;-61
2023/06/26 00:13:36;;;;;;;6.00;4.30;;;;;;;21.18;63.87;99356.88;342314;28;4581;-61
2023/06/26 00:13:48;;;;;;;6.20;4.30;;;;;;;21.17;64.30;99349.88;339861;28;19009;-61
2023/06/26 00:14:01;;;;;;;6.63;4.50;;;;;;;21.17;64.34;99352.53;343075;28;5511;-59
2023/06/26 00:14:13;;;;;;;6.70;4.53;;;;;;;21.17;64.12;99349.88;340095;28;10242;-60
2023/06/26 00:14:25;;;;;;;6.60;4.57;;;;;;;21.14;64.46;99351.81;341781;28;6496;-61
2023/06/26 00:14:37;;;;;;;6.47;4.60;;;;;;;21.13;64.83;99355.44;341906;28;12301;-61
2023/06/26 00:14:49;;;;;;;5.72;4.47;;;;;;;21.13;64.70;99347.50;339025;28;19006;-59
2023/06/26 00:15:01;;;;;;;6.05;4.40;;;;;;;21.14;64.62;99349.16;342033;28;4669;-61
2023/06/26 00:15:13;;;;;;;6.55;4.50;;;;;;;21.14;64.56;99351.81;339138;28;18308;-61
2023/06/26 00:15:25;;;;;;;6.57;4.43;;;;;;;21.14;64.10;99351.81;341781;28;5371;-61
2023/06/26 00:15:38;;;;;;;5.38;4.38;;;;;;;21.14;64.43;99350.97;342459;28;5207;-61
2023/06/26 00:15:51;;;;;;;5.13;4.30;;;;;;;21.17;64.32;99352.53;339779;28;19326;-61
2023/06/26 00:16:03;;;;;;;5.78;4.40;;;;;;;21.15;64.19;99345.56;339437;28;11813;-61
2023/06/26 00:16:15;;;;;;;5.28;4.38;;;;;;;21.17;64.33;99344.59;343082;28;4617;-60
2023/06/26 00:16:27;;;;;;;5.10;4.28;;;;;;;21.15;64.47;99348.22;341154;28;5209;-62
2023/06/26 00:16:39;;;;;;;6.05;4.30;;;;;;;21.15;64.68;99347.38;340211;28;18439;-62
2023/06/26 00:16:52;;;;;;;6.63;4.53;;;;;;;21.13;65.24;99344.88;342542;28;5386;-60
2023/06/26 00:17:04;;;;;;;6.57;4.82;;;;;;;21.11;65.18;99346.78;340441;28;18974;-61
2023/06/26 00:17:16;;;;;;;7.00;4.72;;;;;;;21.11;64.89;99346.78;343013;28;4805;-61
2023/06/26 00:17:28;;;;;;;6.47;4.50;;;;;;;21.11;64.76;99346.78;340286;28;16675;-61
2023/06/26 00:17:40;;;;;;;6.28;4.57;;;;;;;21.12;65.13;99348.47;342149;28;5566;-61
2023/06/26 00:17:52;;;;;;;6.38;4.70;;;;;;;21.10;64.57;99345.09;343051;28;5251;-59
2023/06/26 00:18:04;;;;;;;6.57;4.50;;;;;;;21.12;64.73;99348.47;340327;28;18332;-58
2023/06/26 00:18:17;;;;;;;6.03;4.35;;;;;;;21.12;64.97;99348.47;342339;28;4713;-61
2023/06/26 00:18:29;;;;;;;5.38;4.15;;;;;;;21.12;64.86;99348.47;338971;28;18155;-61
2023/06/26 00:18:41;;;;;;;5.15;3.95;;;;;;;21.13;64.40;99349.31;342368;28;4641;-60
2023/06/26 00:18:54;;;;;;;5.53;4.13;;;;;;;21.12;64.49;99343.16;340564;28;11360;-59
2023/06/26 00:19:06;;;;;;;5.47;4.20;;;;;;;21.12;64.86;99348.47;341828;28;4636;-61
2023/06/26 00:19:18;;;;;;;6.00;4.50;;;;;;;21.13;65.06;99334.28;340640;28;5595;-62
2023/06/26 00:19:30;;;;;;;5.50;4.40;;;;;;;21.13;64.44;99339.56;341017;28;16888;-62
2023/06/26 00:19:42;;;;;;;5.95;4.30;;;;;;;21.14;64.34;99341.25;342760;28;5169;-60
2023/06/26 00:19:54;;;;;;;6.13;4.25;;;;;;;21.14;64.17;99340.41;340237;28;18207;-61
2023/06/26 00:20:07;;;;;;;5.90;4.40;;;;;;;21.15;64.04;99342.94;341563;28;4643;-61
2023/06/26 00:20:19;;;;;;;5.65;4.30;;;;;;;21.15;64.04;99337.66;339621;28;18191;-60
2023/06/26 00:20:33;;;;;;;5.43;4.22;;;;;;;21.18;64.07;99341.00;343064;28;4622;-60
2023/06/26 00:20:46;;;;;;;5.53;4.28;;;;;;;21.13;64.72;99333.47;340705;28;18046;-61
2023/06/26 00:20:58;;;;;;;5.65;4.47;;;;;;;21.15;64.34;99335.00;341470;28;4639;-60
2023/06/26 00:21:10;;;;;;;6.00;4.57;;;;;;;21.16;64.26;99338.47;341794;28;16874;-61
2023/06/26 00:21:22;;;;;;;5.70;4.50;;;;;;;21.15;63.80;99342.94;342025;28;5401;-61
2023/06/26 00:21:34;;;;;;;5.03;4.30;;;;;;;21.17;63.71;99344.59;340627;28;5414;-62
2023/06/26 00:21:47;;;;;;;5.15;4.40;;;;;;;21.17;63.86;99339.31;342559;28;5495;-61
2023/06/26 00:21:59;;;;;;;5.68;4.40;;;;;;;21.16;64.45;99343.75;338658;28;18117;-61
2023/06/26 00:22:12;;;;;;;5.28;4.25;;;;;;;21.13;64.90;99339.56;341924;28;6438;-60
2023/06/26 00:22:27;;;;;;;4.97;4.18;;;;;;;21.13;64.46;99342.22;338297;28;18286;-61
2023/06/26 00:22:41;;;;;;;5.18;4.22;;;;;;;21.12;64.94;99337.88;339467;28;10942;-61
2023/06/26 00:22:55;;;;;;;5.20;4.25;;;;;;;21.11;64.54;99341.50;339661;28;16852;-62
2023/06/26 00:23:07;;;;;;;5.07;4.28;;;;;;;21.11;64.68;99344.16;342890;28;4769;-61
2023/06/26 00:23:19;;;;;;;5.80;4.45;;;;;;;21.11;64.88;99338.03;339307;28;18427;-59
2023/06/26 00:23:32;;;;;;;6.03;4.50;;;;;;;21.11;65.05;99345.97;341173;28;5148;-61
2023/06/26 00:23:45;;;;;;;5.95;4.63;;;;;;;21.12;64.70;99345.81;339962;28;19197;-60
2023/06/26 00:23:57;;;;;;;5.40;4.70;;;;;;;21.13;64.65;99344.88;342123;28;5900;-61
2023/06/26 00:24:09;;;;;;;5.20;4.60;;;;;;;21.11;64.89;99333.56;339833;28;18392;-61
2023/06/26 00:24:21;;;;;;;5.45;4.43;;;;;;;21.11;65.39;99338.88;342626;28;4780;-61
2023/06/26 00:24:33;;;;;;;5.50;4.40;;;;;;;21.10;65.25;99345.09;339922;28;11808;-60
2023/06/26 00:24:45;;;;;;;6.78;4.32;;;;;;;21.07;65.66;99339.25;342902;28;4647;-61
2023/06/26 00:24:57;;;;;;;6.35;4.32;;;;;;;21.09;65.01;99343.44;341392;28;4732;-61
2023/06/26 00:25:09;;;;;;;6.13;4.25;;;;;;;21.09;65.43;99338.16;340003;28;18061;-61
2023/06/26 00:25:21;;;;;;;4.80;4.30;;;;;;;21.09;65.16;99340.78;340997;28;4651;-59
2023/06/26 00:25:34;;;;;;;4.60;4.18;;;;;;;21.10;65.24;99334.53;339386;28;16680;-59
2023/06/26 00:25:46;;;;;;;5.78;4.43;;;;;;;21.12;64.94;99337.88;342965;28;4758;-62
2023/06/26 00:25:58;;;;;;;5.70;4.20;;;;;;;21.12;64.56;99340.53;340654;28;17597;-59
2023/06/26 00:26:11;;;;;;;5.50;4.10;;;;;;;21.13;64.42;99339.56;342632;28;4783;-59
2023/06/26 00:26:24;;;;;;;5.13;4.35;;;;;;;21.11;64.80;99343.31;339521;28;5316;-61
2023/06/26 00:26:36;;;;;;;6.18;4.57;;;;;;;21.12;64.71;99340.53;341568;28;4637;-61
2023/06/26 00:26:49;;;;;;;6.65;4.60;;;;;;;21.10;64.61;99344.28;339565;28;17579;-61
2023/06/26 00:27:01;;;;;;;7.05;4.70;;;;;;;21.08;64.48;99343.56;343307;28;4758;-61
2023/06/26 00:27:13;;;;;;;6.55;4.78;;;;;;;21.05;64.13;99331.44;340608;28;8807;-61
2023/06/26 00:27:25;;;;;;;6.00;4.70;;;;;;;21.06;64.71;99338.38;342188;28;4762;-59
2023/06/26 00:27:40;;;;;;;5.57;4.60;;;;;;;21.02;64.26;99342.25;339713;28;17913;-58
2023/06/26 00:27:52;;;;;;;5.90;4.65;;;;;;;21.03;64.02;99343.94;341606;28;4664;-61
2023/06/26 00:28:04;;;;;;;5.57;4.47;;;;;;;21.04;64.05;99340.31;340544;28;19029;-61
2023/06/26 00:28:19;;;;;;;5.60;4.40;;;;;;;21.05;63.69;99342.00;342945;28;4673;-61
2023/06/26 00:28:31;;;;;;;5.00;4.20;;;;;;;21.06;63.62;99346.31;339515;28;17494;-62
2023/06/26 00:28:43;;;;;;;4.70;4.15;;;;;;;21.08;63.28;99349.66;339915;28;4649;-60
2023/06/26 00:28:55;;;;;;;5.10;4.38;;;;;;;21.06;63.69;99343.66;343088;28;4646;-61
2023/06/26 00:29:07;;;;;;;5.13;4.30;;;;;;;21.05;63.65;99354.38;342415;28;4571;-59
2023/06/26 00:29:19;;;;;;;5.22;4.32;;;;;;;21.06;63.76;99341.03;340272;28;18299;-61
2023/06/26 00:29:31;;;;;;;5.22;4.35;;;;;;;21.05;64.38;99344.66;343027;28;4668;-59
2023/06/26 00:29:43;;;;;;;5.28;4.15;;;;;;;21.08;64.10;99343.56;339690;28;5530;-60
2023/06/26 00:29:55;;;;;;;5.78;4.35;;;;;;;21.08;64.33;99351.47;343091;28;4639;-60
2023/06/26 00:30:08;;;;;;;5.32;4.20;;;;;;;21.10;63.98;99350.38;343065;28;4614;-61
2023/06/26 00:30:20;;;;;;;5.22;4.13;;;;;;;21.08;63.89;99349.66;338893;28;16961;-60
2023/06/26 00:30:32;;;;;;;5.43;4.25;;;;;;;21.09;63.98;99346.06;341661;28;4885;-61
2023/06/26 00:30:44;;;;;;;5.20;4.40;;;;;;;21.08;63.84;99349.66;339999;28;19174;-60
2023/06/26 00:30:56;;;;;;;5.28;4.43;;;;;;;21.08;63.76;99349.66;342657;28;4685;-61
2023/06/26 00:31:08;;;;;;;5.28;4.20;;;;;;;21.09;63.75;99359.28;340508;28;4761;-61
2023/06/26 00:31:20;;;;;;;6.07;4.47;;;;;;;21.08;63.35;99346.19;342427;28;4841;-62
2023/06/26 00:31:32;;;;;;;6.05;4.57;;;;;;;21.04;63.65;99350.88;342122;28;4508;-61
2023/06/26 00:31:44;;;;;;;5.63;4.60;;;;;;;21.02;63.74;99358.09;339592;28;18812;-60
2023/06/26 00:31:57;;;;;;;5.05;4.30;;;;;;;20.97;64.40;99355.00;343099;28;4814;-61
2023/06/26 00:32:09;;;;;;;5.30;4.40;;;;;;;20.95;64.73;99354.28;340136;28;18363;-61
2023/06/26 00:32:21;;;;;;;4.95;4.20;;;;;;;20.92;65.35;99349.25;343085;28;5432;-60
2023/06/26 00:32:33;;;;;;;5.82;4.13;;;;;;;20.92;65.07;99351.88;342673;28;4597;-61
2023/06/26 00:32:45;;;;;;;5.70;4.18;;;;;;;20.93;64.77;99350.94;339511;28;18219;-60
2023/06/26 00:32:57;;;;;;;5.82;4.18;;;;;;;20.93;64.59;99351.75;342074;28;4669;-61
2023/06/26 00:33:09;;;;;;;5.63;4.10;;;;;;;20.93;64.60;99350.94;340088;28;18244;-60
2023/06/26 00:33:22;;;;;;;6.60;4.20;;;;;;;20.94;64.67;99349.94;342609;28;4655;-61
2023/06/26 00:33:34;;;;;;;5.88;4.25;;;;;;;20.93;64.35;99348.28;340227;28;17294;-59
2023/06/26 00:33:46;;;;;;;5.35;4.32;;;;;;;20.90;64.48;99353.81;342904;28;4651;-60
2023/06/26 00:33:58;;;;;;;4.97;4.28;;;;;;;20.89;64.46;99341.56;341836;28;4846;-61
2023/06/26 00:34:10;;;;;;;4.88;4.13;;;;;;;20.90;64.28;99353.81;340011;28;18408;-59
2023/06/26 00:34:22;;;;;;;5.03;4.20;;;;;;;20.89;64.39;99350.31;342470;28;4493;-60
2023/06/26 00:34:34;;;;;;;5.40;4.30;;;;;;;20.88;64.82;99353.09;338914;28;17674;-61
2023/06/26 00:34:46;;;;;;;5.30;4.30;;;;;;;20.87;64.83;99349.63;343203;28;4635;-61
2023/06/26 00:34:58;;;;;;;5.78;4.47;;;;;;;20.88;64.82;99353.09;339122;28;16644;-61
2023/06/26 00:35:10;;;;;;;6.32;4.57;;;;;;;20.88;65.14;99350.44;341471;28;4683;-61
2023/06/26 00:35:22;;;;;;;6.85;4.65;;;;;;;20.91;64.38;99342.28;341769;28;4719;-61
2023/06/26 00:35:35;;;;;;;6.70;4.45;;;;;;;20.91;64.20;99345.75;339787;28;18855;-61
2023/06/26 00:35:47;;;;;;;5.63;4.15;;;;;;;20.91;64.46;99344.94;342785;28;5218;-61
2023/06/26 00:35:59;;;;;;;5.50;4.13;;;;;;;20.90;64.59;99344.06;339701;28;18005;-61
2023/06/26 00:36:11;;;;;;;5.25;4.30;;;;;;;20.90;65.04;99346.72;342760;28;4543;-61
2023/06/26 00:36:23;;;;;;;5.30;4.38;;;;;;;20.89;65.26;99352.13;338824;28;10817;-60
2023/06/26 00:36:35;;;;;;;5.32;4.57;;;;;;;20.88;65.58;99347.81;342412;28;4671;-61
2023/06/26 00:36:47;;;;;;;5.60;4.53;;;;;;;20.86;66.43;99352.38;342857;28;5375;-61
2023/06/26 00:37:00;;;;;;;5.82;4.50;;;;;;;20.85;65.99;99345.44;339698;28;18517;-61
2023/06/26 00:37:12;;;;;;;5.95;4.30;;;;;;;20.86;65.64;99347.09;342120;28;5066;-61
2023/06/26 00:37:24;;;;;;;5.47;4.20;;;;;;;20.88;65.75;99345.16;338658;28;19257;-61
2023/06/26 00:37:36;;;;;;;5.65;4.38;;;;;;;20.89;65.50;99346.84;342530;28;4631;-61
2023/06/26 00:37:49;;;;;;;5.20;4.40;;;;;;;20.89;65.24;99347.69;340291;28;4674;-61
2023/06/26 00:38:01;;;;;;;5.28;4.30;;;;;;;20.91;64.88;99344.94;338108;28;17966;-61
2023/06/26 00:38:13;;;;;;;5.45;4.25;;;;;;;20.87;65.73;99341.69;337921;28;4931;-61
2023/06/26 00:38:25;;;;;;;7.05;4.40;;;;;;;20.87;65.38;99335.56;341347;28;4556;-59
2023/06/26 00:38:37;;;;;;;6.97;4.40;;;;;;;20.85;66.05;99340.13;340158;28;4527;-59
2023/06/26 00:38:50;;;;;;;6.15;4.47;;;;;;;20.86;65.80;99345.28;338476;28;11612;-59
2023/06/26 00:39:03;;;;;;;6.13;4.38;;;;;;;20.86;65.31;99345.28;341388;28;4565;-61
2023/06/26 00:39:15;;;;;;;5.55;4.30;;;;;;;20.88;65.16;99347.81;337916;28;17929;-61
2023/06/26 00:39:27;;;;;;;5.00;4.25;;;;;;;20.87;64.93;99341.69;340646;28;5443;-61
2023/06/26 00:39:40;;;;;;;4.97;4.18;;;;;;;20.88;65.08;99345.16;336486;28;18298;-62
2023/06/26 00:39:52;;;;;;;5.18;4.30;;;;;;;20.88;65.06;99345.16;342349;28;5127;-61
2023/06/26 00:40:07;;;;;;;5.32;4.25;;;;;;;20.89;64.89;99347.69;339790;28;18291;-60
2023/06/26 00:40:19;;;;;;;5.65;4.25;;;;;;;20.89;64.70;99341.56;338999;28;16318;-61
2023/06/26 00:40:31;;;;;;;6.00;4.28;;;;;;;20.90;64.41;99344.06;341312;28;4664;-59
2023/06/26 00:40:43;;;;;;;5.60;4.10;;;;;;;20.90;64.77;99346.72;339632;28;12229;-60
2023/06/26 00:40:56;;;;;;;5.63;4.10;;;;;;;20.90;65.10;99343.25;342753;28;5140;-61
2023/06/26 00:41:12;;;;;;;6.28;4.13;;;;;;;20.92;64.85;99343.94;342573;28;4544;-59
2023/06/26 00:41:24;;;;;;;5.80;4.22;;;;;;;20.91;64.16;99351.03;339420;28;17962;-61
2023/06/26 00:41:37;;;;;;;5.30;4.45;;;;;;;20.91;64.57;99337.00;341085;28;4665;-61
2023/06/26 00:41:49;;;;;;;5.38;4.40;;;;;;;20.90;64.41;99344.06;338349;28;16900;-61
2023/06/26 00:42:02;;;;;;;6.00;4.43;;;;;;;20.92;64.06;99342.13;340623;28;5149;-60
2023/06/26 00:42:14;;;;;;;6.30;4.60;;;;;;;20.92;64.01;99341.31;337634;28;16208;-60
2023/06/26 00:42:25;;;;;;;6.28;4.65;;;;;;;20.92;64.17;99338.66;339741;28;4660;-61
2023/06/26 00:42:37;;;;;;;5.00;4.32;;;;;;;20.91;64.38;99342.28;342267;28;5197;-61
2023/06/26 00:42:53;;;;;;;5.07;4.22;;;;;;;20.91;64.01;99339.66;339934;28;18110;-60
2023/06/26 00:43:05;;;;;;;6.82;4.78;;;;;;;20.92;64.06;99342.13;337597;28;16549;-59
2023/06/26 00:43:17;;;;;;;6.85;4.90;;;;;;;20.90;64.00;99337.94;340392;28;4487;-62
2023/06/26 00:43:29;;;;;;;5.65;4.70;;;;;;;20.92;64.20;99341.31;337093;28;17831;-59
2023/06/26 00:43:41;;;;;;;5.55;4.57;;;;;;;20.93;63.74;99343.84;341829;28;4636;-60
2023/06/26 00:43:53;;;;;;;6.72;4.60;;;;;;;20.94;63.80;99339.38;342758;28;4712;-61
2023/06/26 00:44:05;;;;;;;7.28;4.60;;;;;;;20.96;63.56;99342.75;339372;28;18353;-61
2023/06/26 00:44:17;;;;;;;6.88;4.63;;;;;;;20.96;63.75;99337.47;341010;28;5332;-62
2023/06/26 00:44:29;;;;;;;6.57;4.43;;;;;;;20.96;63.76;99337.47;339182;28;11239;-62
2023/06/26 00:44:41;;;;;;;5.85;4.10;;;;;;;20.96;63.95;99332.16;342261;28;4525;-61
2023/06/26 00:44:53;;;;;;;4.70;4.05;;;;;;;20.95;63.81;99331.34;342842;28;4534;-61
2023/06/26 00:45:06;;;;;;;4.95;4.13;;;;;;;20.94;63.90;99334.09;339712;28;18476;-61
2023/06/26 00:45:18;;;;;;;6.38;4.35;;;;;;;20.94;63.73;99339.38;341884;28;5424;-61
2023/06/26 00:45:41;;;;;;;5.97;4.40;;;;;;;20.87;63.13;99339.03;338946;28;17673;-59
2023/06/26 00:45:55;;;;;;;4.72;4.20;;;;;;;20.85;63.17;99338.34;339506;28;17883;-61
2023/06/26 00:46:10;;;;;;;5.30;4.20;;;;;;;20.85;63.51;99337.50;343144;28;4957;-59
2023/06/26 00:46:23;;;;;;;5.78;4.38;;;;;;;20.86;63.60;99333.88;339605;28;18146;-61
2023/06/26 00:46:35;;;;;;;5.57;4.53;;;;;;;20.82;64.35;99335.91;340063;28;18670;-61
2023/06/26 00:46:48;;;;;;;6.22;4.80;;;;;;;20.81;64.53;99333.44;342178;28;4917;-61
2023/06/26 00:47:00;;;;;;;5.75;4.63;;;;;;;20.82;64.41;99337.72;338843;28;18100;-59
2023/06/26 00:47:15;;;;;;;6.32;4.60;;;;;;;20.83;64.30;99336.78;332736;28;4704;-61
2023/06/26 00:47:27;;;;;;;6.13;4.43;;;;;;;20.85;63.86;99332.22;339765;28;18228;-61
2023/06/26 00:47:40;;;;;;;8.13;4.40;;;;;;;20.85;64.17;99330.41;340092;28;19793;-61
2023/06/26 00:47:52;;;;;;;8.18;4.50;;;;;;;20.81;64.54;99338.72;342031;28;4996;-59
2023/06/26 00:48:05;;;;;;;6.07;4.63;;;;;;;20.82;64.17;99332.44;339489;28;18365;-60
2023/06/26 00:48:18;;;;;;;5.68;4.50;;;;;;;20.82;63.66;99335.09;341919;28;4644;-61
2023/06/26 00:48:30;;;;;;;5.72;4.45;;;;;;;20.81;64.29;99334.25;339600;28;18304;-61
2023/06/26 00:48:45;;;;;;;5.53;4.30;;;;;;;20.80;64.08;99331.72;342593;28;4663;-58
2023/06/26 00:48:59;;;;;;;6.22;4.15;;;;;;;20.81;64.01;99328.16;338597;28;18202;-61
2023/06/26 00:49:12;;;;;;;7.90;4.25;;;;;;;20.82;63.61;99329.81;339336;28;18191;-60
2023/06/26 00:49:26;;;;;;;8.38;4.28;;;;;;;20.83;63.91;99334.13;340472;28;17975;-61
2023/06/26 00:49:38;;;;;;;7.28;4.20;;;;;;;20.83;63.83;99334.97;342506;28;4695;-60
2023/06/26 00:49:50;;;;;;;6.97;4.30;;;;;;;20.79;64.58;99335.34;341509;28;19264;-61
2023/06/26 00:50:04;;;;;;;5.47;4.25;;;;;;;20.75;64.75;99330.31;340743;28;4963;-61
2023/06/26 00:50:17;;;;;;;5.18;4.38;;;;;;;20.76;64.68;99331.13;339807;28;18269;-60
2023/06/26 00:50:29;;;;;;;4.88;4.22;;;;;;;20.73;64.60;99334.88;338587;28;19241;-59
2023/06/26 00:50:42;;;;;;;5.93;4.30;;;;;;;20.77;64.15;99326.72;341910;28;5491;-59
2023/06/26 00:50:54;;;;;;;6.03;4.20;;;;;;;20.75;63.88;99335.59;338718;28;18684;-60
2023/06/26 00:51:07;;;;;;;5.72;4.03;;;;;;;20.73;63.81;99329.59;340137;28;4696;-61
2023/06/26 00:51:19;;;;;;;5.20;4.10;;;;;;;20.75;63.44;99335.59;338350;28;18102;-59
2023/06/26 00:51:31;;;;;;;4.72;3.92;;;;;;;20.75;63.56;99330.31;341372;28;4639;-61
2023/06/26 00:51:43;;;;;;;4.47;3.90;;;;;;;20.80;63.95;99331.72;338692;28;10964;-60
2023/06/26 00:51:56;;;;;;;4.13;3.72;;;;;;;20.81;63.92;99334.25;341378;28;5127;-61
2023/06/26 00:52:08;;;;;;;5.30;3.85;;;;;;;20.81;63.43;99331.63;341508;28;4688;-61
2023/06/26 00:52:21;;;;;;;5.85;3.90;;;;;;;20.81;63.44;99330.78;339199;28;18203;-61
2023/06/26 00:52:33;;;;;;;6.38;4.07;;;;;;;20.81;63.62;99333.44;342053;28;5364;-61
2023/06/26 00:52:45;;;;;;;5.47;4.30;;;;;;;20.80;63.64;99329.09;339338;28;17183;-59
2023/06/26 00:53:00;;;;;;;5.35;4.50;;;;;;;20.79;63.54;99330.06;342450;28;4689;-61
2023/06/26 00:53:12;;;;;;;5.80;4.60;;;;;;;20.74;64.22;99333.91;340333;28;17933;-60
2023/06/26 00:53:24;;;;;;;5.35;4.40;;;;;;;20.73;64.23;99334.88;340206;28;18395;-61
2023/06/26 00:53:37;;;;;;;5.93;4.40;;;;;;;20.74;64.15;99327.78;342877;28;4607;-59
2023/06/26 00:53:49;;;;;;;5.75;4.43;;;;;;;20.73;64.00;99337.50;338575;28;12942;-60
2023/06/26 00:54:01;;;;;;;6.15;4.50;;;;;;;20.71;64.34;99339.44;341736;28;4527;-59
2023/06/26 00:54:19;;;;;;;5.60;4.40;;;;;;;20.71;64.38;99341.25;339183;28;12030;-61
2023/06/26 00:54:32;;;;;;;5.32;4.30;;;;;;;20.71;64.60;99331.50;339610;28;17895;-62
2023/06/26 00:54:44;;;;;;;6.25;4.35;;;;;;;20.73;64.51;99332.22;339926;28;16163;-60
2023/06/26 00:54:56;;;;;;;6.38;4.35;;;;;;;20.72;64.74;99327.88;343093;28;4704;-59
2023/06/26 00:55:09;;;;;;;6.50;4.30;;;;;;;20.72;64.59;99332.34;342665;28;4629;-60
2023/06/26 00:55:21;;;;;;;5.63;4.38;;;;;;;20.71;64.75;99334.16;339618;28;18308;-62
2023/06/26 00:55:33;;;;;;;5.60;4.30;;;;;;;20.70;64.66;99332.47;342207;28;4654;-59
2023/06/26 00:55:45;;;;;;;5.47;4.20;;;;;;;20.71;64.49;99333.31;340085;28;18766;-61
2023/06/26 00:55:58;;;;;;;5.57;4.22;;;;;;;20.71;64.45;99334.16;342928;28;5413;-59
2023/06/26 00:56:11;;;;;;;5.57;4.30;;;;;;;20.71;64.29;99333.31;339828;28;18838;-61
2023/06/26 00:56:23;;;;;;;5.53;4.20;;;;;;;20.70;64.28;99332.47;342421;28;5374;-61
2023/06/26 00:56:36;;;;;;;5.30;3.95;;;;;;;20.72;63.79;99330.53;339676;28;18091;-59
2023/06/26 00:56:48;;;;;;;5.85;4.18;;;;;;;20.72;63.49;99341.09;339062;28;12151;-61
2023/06/26 00:57:00;;;;;;;6.07;4.05;;;;;;;20.71;63.66;99334.16;341601;28;5348;-62
2023/06/26 00:57:13;;;;;;;5.57;4.00;;;;;;;20.71;64.37;99333.31;341826;28;5297;-62
2023/06/26 00:57:25;;;;;;;5.40;3.90;;;;;;;20.69;64.48;99330.78;339319;28;18141;-61
2023/06/26 00:57:37;;;;;;;5.90;4.20;;;;;;;20.71;64.10;99331.50;343112;28;5609;-61
2023/06/26 00:57:49;;;;;;;6.45;4.45;;;;;;;20.71;63.99;99326.22;340140;28;17308;-61
2023/06/26 00:58:01;;;;;;;6.95;4.45;;;;;;;20.71;64.37;99334.16;342778;28;4695;-61
2023/06/26 00:58:13;;;;;;;6.85;4.50;;;;;;;20.71;64.21;99331.50;342027;28;5583;-61
2023/06/26 00:58:26;;;;;;;5.07;4.30;;;;;;;20.72;63.97;99333.16;341730;28;16395;-61
2023/06/26 00:58:38;;;;;;;5.85;4.55;;;;;;;20.73;63.69;99328.75;342702;28;4810;-61
2023/06/26 00:58:49;;;;;;;7.15;4.82;;;;;;;20.73;63.48;99324.31;338936;28;19429;-61
2023/06/26 00:59:01;;;;;;;6.78;4.63;;;;;;;20.72;63.52;99330.53;341514;28;4818;-59
2023/06/26 00:59:14;;;;;;;5.75;4.40;;;;;;;20.74;63.61;99328.63;338923;28;11504;-60
2023/06/26 00:59:26;;;;;;;5.18;4.35;;;;;;;20.73;63.54;99326.94;341152;28;4625;-61
2023/06/26 00:59:38;;;;;;;5.45;4.53;;;;;;;20.75;63.75;99330.31;342714;28;4642;-59
2023/06/26 00:59:50;;;;;;;5.45;4.43;;;;;;;20.76;63.47;99325.84;340285;28;17871;-60